Time;durP1;ratioP1;P1;durP2;ratioP2;P2;SDS_P1;SDS_P2;PMS_P1;PMS_P2;Temp;Humidity;BMP_temperature;BMP_pressure;BME280_temperature;BME280_humidity;BME280_pressure;Samples;Min_cycle;Max_cycle;Signal;HPM_P1;HPM_P2
2023/03/20 00:02:21;;;;;;;22.50;10.90;;;;;;;;;;110490;1276;22974;-78
2023/03/20 00:04:48;;;;;;;17.90;10.10;;;;;;;;;;110370;1276;22495;-77
2023/03/20 00:07:14;;;;;;;20.70;10.10;;;;;;;;;;110576;1276;22245;-77
2023/03/20 00:09:41;;;;;;;20.50;9.90;;;;;;;;;;110592;1259;22831;-77
2023/03/20 00:12:16;;;;;;;20.70;10.50;;;;;;;;;;110612;1276;22726;-77
2023/03/20 00:14:43;;;;;;;20.30;11.20;;;;;;;;;;110591;1276;22159;-77
2023/03/20 00:17:19;;;;;;;19.50;9.90;;;;;;;;;;110517;1276;22833;-76
2023/03/20 00:19:46;;;;;;;18.80;10.30;;;;;;;;;;110576;1258;22148;-76
2023/03/20 00:22:13;;;;;;;18.90;9.60;;;;;;;;;;110533;1277;22130;-76
2023/03/20 00:24:40;;;;;;;19.80;9.50;;;;;;;;;;110515;1276;22088;-77
2023/03/20 00:27:08;;;;;;;17.50;9.70;;;;;;;;;;110521;1276;22976;-76
2023/03/20 00:29:35;;;;;;;17.70;9.70;;;;;;;;;;110433;1259;22150;-77
2023/03/20 00:32:02;;;;;;;18.40;10.00;;;;;;;;;;110530;1276;22113;-77
2023/03/20 00:34:30;;;;;;;17.70;10.00;;;;;;;;;;110443;1276;22118;-77
2023/03/20 00:36:56;;;;;;;18.80;9.10;;;;;;;;;;110441;1277;22292;-77
2023/03/20 00:39:24;;;;;;;17.30;10.30;;;;;;;;;;110492;1254;23339;-77
2023/03/20 00:41:59;;;;;;;18.90;9.80;;;;;;;;;;110534;1276;22116;-77
2023/03/20 00:44:38;;;;;;;17.90;9.30;;;;;;;;;;110303;1276;22773;-77
2023/03/20 00:47:12;;;;;;;18.40;10.20;;;;;;;;;;110459;1276;22740;-77
2023/03/20 00:49:39;;;;;;;18.90;9.50;;;;;;;;;;110431;1254;22056;-77
2023/03/20 00:52:07;;;;;;;18.40;8.50;;;;;;;;;;110472;1276;22106;-77
2023/03/20 00:54:35;;;;;;;16.70;9.30;;;;;;;;;;110291;1276;22161;-77
2023/03/20 00:57:05;;;;;;;17.50;9.70;;;;;;;;;;110451;1276;22116;-77
2023/03/20 00:59:35;;;;;;;13.80;7.80;;;;;;;;;;110539;1276;22785;-77
2023/03/20 01:02:02;;;;;;;18.40;9.80;;;;;;;;;;110875;1257;22130;-77
2023/03/20 01:04:40;;;;;;;18.50;10.00;;;;;;;;;;110450;1276;22077;-77
2023/03/20 01:07:11;;;;;;;14.10;7.50;;;;;;;;;;110784;1258;22102;-77
2023/03/20 01:09:38;;;;;;;14.70;8.30;;;;;;;;;;110534;1276;22108;-77
2023/03/20 01:12:06;;;;;;;13.60;8.00;;;;;;;;;;110817;1257;22144;-77
2023/03/20 01:14:34;;;;;;;13.70;7.80;;;;;;;;;;110544;1277;22186;-78
2023/03/20 01:17:01;;;;;;;14.80;8.40;;;;;;;;;;110505;1277;22263;-77
2023/03/20 01:19:28;;;;;;;14.90;7.70;;;;;;;;;;110372;1277;22146;-77
2023/03/20 01:21:56;;;;;;;14.60;8.30;;;;;;;;;;110629;1259;22295;-77
2023/03/20 01:24:23;;;;;;;14.90;7.80;;;;;;;;;;110366;1277;22158;-77
2023/03/20 01:26:52;;;;;;;14.90;7.90;;;;;;;;;;110301;1277;22102;-77
2023/03/20 01:29:23;;;;;;;16.10;7.70;;;;;;;;;;110367;1277;22194;-76
2023/03/20 01:31:51;;;;;;;15.50;7.90;;;;;;;;;;110512;1259;22920;-77
2023/03/20 01:34:20;;;;;;;15.10;8.70;;;;;;;;;;110464;1277;22060;-77
2023/03/20 01:36:49;;;;;;;15.00;9.00;;;;;;;;;;110318;1277;22191;-76
2023/03/20 01:39:17;;;;;;;17.70;8.90;;;;;;;;;;110372;1277;22117;-77
2023/03/20 01:41:46;;;;;;;15.00;8.60;;;;;;;;;;110636;1259;22108;-76
2023/03/20 01:44:21;;;;;;;18.20;9.30;;;;;;;;;;110448;1277;23474;-77
2023/03/20 01:46:51;;;;;;;17.50;9.90;;;;;;;;;;110328;1277;22139;-77
2023/03/20 01:49:20;;;;;;;21.40;11.50;;;;;;;;;;110259;1277;22085;-77
2023/03/20 01:51:48;;;;;;;21.20;11.60;;;;;;;;;;110480;1259;22158;-77
2023/03/20 01:54:18;;;;;;;18.50;11.30;;;;;;;;;;110347;1277;22213;-77
2023/03/20 01:57:05;;;;;;;19.50;11.30;;;;;;;;;;110354;1277;22158;-77
2023/03/20 01:59:39;;;;;;;20.20;10.80;;;;;;;;;;110281;1277;22397;-77
2023/03/20 02:02:08;;;;;;;18.40;10.40;;;;;;;;;;110450;1259;21997;-77
2023/03/20 02:04:40;;;;;;;14.90;8.20;;;;;;;;;;110360;1277;22218;-77
2023/03/20 02:07:12;;;;;;;19.20;10.20;;;;;;;;;;110352;1277;22285;-78
2023/03/20 02:09:47;;;;;;;17.60;9.70;;;;;;;;;;110348;1277;22767;-77
2023/03/20 02:12:20;;;;;;;19.90;9.90;;;;;;;;;;110308;1262;22106;-76
2023/03/20 02:14:49;;;;;;;18.40;9.30;;;;;;;;;;110354;1277;22572;-77
2023/03/20 02:17:37;;;;;;;17.40;7.70;;;;;;;;;;110156;1278;22854;-77
2023/03/20 02:20:34;;;;;;;17.20;8.40;;;;;;;;;;110192;1278;23046;-77
2023/03/20 02:23:33;;;;;;;14.30;8.40;;;;;;;;;;110341;1259;22149;-77
2023/03/20 02:26:28;;;;;;;14.10;8.00;;;;;;;;;;110441;1278;22194;-78
2023/03/20 02:29:17;;;;;;;15.70;8.50;;;;;;;;;;110308;1278;22231;-77
2023/03/20 02:32:05;;;;;;;13.50;7.60;;;;;;;;;;110449;1257;22169;-77
2023/03/20 02:34:53;;;;;;;14.90;7.40;;;;;;;;;;110257;1275;22101;-77
2023/03/20 02:37:43;;;;;;;15.80;7.90;;;;;;;;;;110192;1278;22090;-76
2023/03/20 02:40:35;;;;;;;16.20;7.90;;;;;;;;;;110430;1278;22081;-77
2023/03/20 02:43:15;;;;;;;14.00;7.60;;;;;;;;;;110458;1259;22137;-77
2023/03/20 02:45:57;;;;;;;15.20;7.00;;;;;;;;;;110314;1278;22095;-77
2023/03/20 02:48:49;;;;;;;13.80;6.80;;;;;;;;;;110304;1276;22204;-77
2023/03/20 02:51:27;;;;;;;14.50;7.30;;;;;;;;;;110300;1278;22323;-77
2023/03/20 02:54:07;;;;;;;13.80;6.80;;;;;;;;;;110414;1261;23004;-77
2023/03/20 02:56:48;;;;;;;12.80;6.60;;;;;;;;;;110289;1278;22128;-77
2023/03/20 02:59:37;;;;;;;12.10;6.80;;;;;;;;;;110297;1278;22125;-77
2023/03/20 03:02:17;;;;;;;13.30;6.80;;;;;;;;;;110406;1278;22188;-77
2023/03/20 03:05:10;;;;;;;12.40;7.00;;;;;;;;;;110109;1262;22820;-76
2023/03/20 03:07:42;;;;;;;11.90;6.90;;;;;;;;;;110262;1278;22230;-77
2023/03/20 03:10:17;;;;;;;14.50;7.20;;;;;;;;;;110304;1278;22096;-76
2023/03/20 03:12:48;;;;;;;14.50;8.00;;;;;;;;;;110430;1255;22117;-76
2023/03/20 03:15:20;;;;;;;12.40;7.30;;;;;;;;;;110100;1278;22090;-76
2023/03/20 03:25:10;;;;;;;16.90;9.40;;;;;;;;;;104203;1288;546146;-83
2023/03/20 03:27:37;;;;;;;15.80;8.80;;;;;;;;;;106019;1287;22600;-85
2023/03/20 03:30:10;;;;;;;15.60;8.60;;;;;;;;;;106172;1287;22548;-82
2023/03/20 03:32:47;;;;;;;16.30;8.00;;;;;;;;;;106320;1287;22546;-77
2023/03/20 03:35:15;;;;;;;13.90;8.20;;;;;;;;;;106063;1270;22645;-78
2023/03/20 03:37:44;;;;;;;12.40;6.90;;;;;;;;;;104365;1285;2412961;-81
2023/03/20 03:40:20;;;;;;;12.80;6.70;;;;;;;;;;106437;1285;24347;-81
2023/03/20 03:43:08;;;;;;;11.30;5.60;;;;;;;;;;107078;1273;25478;-77
2023/03/20 03:45:58;;;;;;;12.50;6.40;;;;;;;;;;107163;1256;24167;-84
2023/03/20 03:48:34;;;;;;;12.90;6.40;;;;;;;;;;107125;1273;24005;-79
2023/03/20 03:51:06;;;;;;;13.00;6.90;;;;;;;;;;107112;1273;22536;-78
2023/03/20 03:53:39;;;;;;;14.10;8.10;;;;;;;;;;107156;1273;22636;-79
2023/03/20 03:56:08;;;;;;;15.70;8.20;;;;;;;;;;107194;1257;22579;-80
2023/03/20 03:58:36;;;;;;;16.00;9.60;;;;;;;;;;107137;1273;22547;-79
2023/03/20 04:01:03;;;;;;;15.70;8.70;;;;;;;;;;107105;1273;22608;-79
2023/03/20 04:03:31;;;;;;;15.20;8.20;;;;;;;;;;107181;1273;24367;-83
2023/03/20 04:05:58;;;;;;;14.30;8.40;;;;;;;;;;107200;1256;22635;-76
2023/03/20 04:08:26;;;;;;;17.60;9.20;;;;;;;;;;107203;1273;25466;-79
2023/03/20 04:10:52;;;;;;;17.00;9.90;;;;;;;;;;107162;1273;22649;-77
2023/03/20 04:13:21;;;;;;;19.30;10.80;;;;;;;;;;106879;1273;22534;-80
2023/03/20 04:15:47;;;;;;;19.00;11.80;;;;;;;;;;107070;1273;22635;-81
2023/03/20 04:18:15;;;;;;;24.40;12.20;;;;;;;;;;107071;1274;22605;-79
2023/03/20 04:20:42;;;;;;;21.40;12.20;;;;;;;;;;107170;1274;22537;-81
2023/03/20 04:23:08;;;;;;;19.50;11.20;;;;;;;;;;107008;1274;22527;-82
2023/03/20 04:25:35;;;;;;;20.20;11.70;;;;;;;;;;107147;1256;22528;-80
2023/03/20 04:28:01;;;;;;;19.80;10.90;;;;;;;;;;107111;1270;22543;-76
2023/03/20 04:30:35;;;;;;;19.80;11.70;;;;;;;;;;107006;1274;24315;-80
2023/03/20 04:33:24;;;;;;;19.30;11.90;;;;;;;;;;107235;1274;24183;-76
2023/03/20 04:36:11;;;;;;;21.50;12.20;;;;;;;;;;107061;1256;22570;-83
2023/03/20 04:38:44;;;;;;;21.50;12.90;;;;;;;;;;106987;1274;25406;-80
2023/03/20 04:41:10;;;;;;;23.60;13.80;;;;;;;;;;106907;1274;25360;-81
2023/03/20 04:43:38;;;;;;;22.90;13.20;;;;;;;;;;106872;1274;24216;-81
2023/03/20 04:46:04;;;;;;;23.30;13.80;;;;;;;;;;106916;1257;25328;-78
2023/03/20 04:48:30;;;;;;;25.20;15.00;;;;;;;;;;106917;1274;22516;-76
2023/03/20 04:50:57;;;;;;;25.10;14.10;;;;;;;;;;106790;1274;24205;-76
2023/03/20 04:53:40;;;;;;;28.90;15.70;;;;;;;;;;107107;1274;24337;-77
2023/03/20 04:56:06;;;;;;;26.10;14.80;;;;;;;;;;106920;1256;22552;-80
2023/03/20 04:58:35;;;;;;;24.70;14.40;;;;;;;;;;107127;1274;22653;-78
2023/03/20 05:01:05;;;;;;;25.70;15.30;;;;;;;;;;106966;1274;22534;-77
2023/03/20 05:03:32;;;;;;;25.30;15.10;;;;;;;;;;106948;1274;23888;-78
2023/03/20 05:05:58;;;;;;;28.30;15.80;;;;;;;;;;106889;1271;22985;-84
2023/03/20 05:08:24;;;;;;;26.00;16.00;;;;;;;;;;106962;1274;22502;-77
2023/03/20 05:10:57;;;;;;;26.60;15.00;;;;;;;;;;107009;1274;25452;-83
2023/03/20 05:13:42;;;;;;;25.90;15.30;;;;;;;;;;107112;1274;22526;-79
2023/03/20 05:16:40;;;;;;;28.00;14.90;;;;;;;;;;107003;1259;22541;-81
2023/03/20 05:19:18;;;;;;;27.60;16.60;;;;;;;;;;106944;1274;25229;-78
2023/03/20 05:22:10;;;;;;;28.00;15.80;;;;;;;;;;107141;1274;24246;-80
2023/03/20 05:25:11;;;;;;;26.50;15.00;;;;;;;;;;106802;1279;22547;-77
2023/03/20 05:27:58;;;;;;;27.70;14.90;;;;;;;;;;107084;1274;25450;-80
2023/03/20 05:30:43;;;;;;;27.50;15.80;;;;;;;;;;106949;1272;22636;-81
2023/03/20 05:33:12;;;;;;;26.70;15.50;;;;;;;;;;106977;1274;25287;-79
2023/03/20 05:35:57;;;;;;;27.80;16.40;;;;;;;;;;107135;1263;30303;-79
2023/03/20 05:38:34;;;;;;;27.10;16.00;;;;;;;;;;106913;1259;22730;-78
2023/03/20 05:41:33;;;;;;;28.40;16.50;;;;;;;;;;107098;1274;22561;-81
2023/03/20 05:44:35;;;;;;;27.20;14.90;;;;;;;;;;106483;1281;22578;-78
2023/03/20 05:47:17;;;;;;;28.00;15.90;;;;;;;;;;106864;1259;22577;-81
2023/03/20 05:50:25;;;;;;;27.10;16.30;;;;;;;;;;106984;1275;24177;-78
2023/03/20 05:53:11;;;;;;;28.00;16.70;;;;;;;;;;106961;1275;22525;-79
2023/03/20 05:56:12;;;;;;;25.80;15.80;;;;;;;;;;106572;1281;22656;-76
2023/03/20 05:58:39;;;;;;;26.50;15.60;;;;;;;;;;107032;1275;25275;-79
2023/03/20 06:01:20;;;;;;;27.40;16.00;;;;;;;;;;106957;1275;24186;-79
2023/03/20 06:04:22;;;;;;;27.00;15.50;;;;;;;;;;106896;1275;24295;-76
2023/03/20 06:07:12;;;;;;;23.90;14.00;;;;;;;;;;106555;1253;22546;-80
2023/03/20 06:09:38;;;;;;;29.50;16.10;;;;;;;;;;106826;1275;22524;-81
2023/03/20 06:12:08;;;;;;;27.50;15.60;;;;;;;;;;106851;1275;22524;-81
2023/03/20 06:14:35;;;;;;;32.50;16.90;;;;;;;;;;107125;1275;25332;-78
2023/03/20 06:17:04;;;;;;;27.60;16.10;;;;;;;;;;106813;1254;22526;-82
2023/03/20 06:19:30;;;;;;;24.60;16.20;;;;;;;;;;106929;1275;22527;-81
2023/03/20 06:21:56;;;;;;;27.30;15.60;;;;;;;;;;107104;1274;25318;-80
2023/03/20 06:24:24;;;;;;;26.80;16.00;;;;;;;;;;106826;1275;24177;-76
2023/03/20 06:26:55;;;;;;;25.90;15.30;;;;;;;;;;106726;1275;22530;-80
2023/03/20 06:29:22;;;;;;;28.60;15.40;;;;;;;;;;107106;1256;22502;-77
2023/03/20 06:31:58;;;;;;;28.30;15.20;;;;;;;;;;106876;1275;22538;-79
2023/03/20 06:34:29;;;;;;;26.10;15.80;;;;;;;;;;107099;1275;25370;-79
2023/03/20 06:36:56;;;;;;;30.70;16.80;;;;;;;;;;106881;1275;23012;-80
2023/03/20 06:39:23;;;;;;;26.50;16.20;;;;;;;;;;106984;1257;22543;-78
2023/03/20 06:41:49;;;;;;;29.00;15.80;;;;;;;;;;107017;1271;24253;-81
2023/03/20 06:44:16;;;;;;;30.30;17.20;;;;;;;;;;106985;1275;25353;-76
2023/03/20 06:47:15;;;;;;;29.90;16.20;;;;;;;;;;106826;1270;24222;-75
2023/03/20 06:49:49;;;;;;;29.30;17.10;;;;;;;;;;106946;1270;23873;-80
2023/03/20 06:52:16;;;;;;;26.80;16.20;;;;;;;;;;106949;1269;22526;-76
2023/03/20 06:54:42;;;;;;;33.50;16.00;;;;;;;;;;106704;1275;22486;-76
2023/03/20 06:57:09;;;;;;;28.70;15.70;;;;;;;;;;106981;1273;25423;-77
2023/03/20 06:59:35;;;;;;;30.70;15.70;;;;;;;;;;106727;1260;22694;-80
2023/03/20 07:02:02;;;;;;;29.00;15.60;;;;;;;;;;107039;1269;22527;-78
2023/03/20 07:04:38;;;;;;;31.70;17.50;;;;;;;;;;107111;1275;22535;-76
2023/03/20 07:07:04;;;;;;;34.80;16.90;;;;;;;;;;106856;1275;24184;-80
2023/03/20 07:09:33;;;;;;;31.00;16.50;;;;;;;;;;107143;1275;24206;-83
2023/03/20 07:12:03;;;;;;;27.10;15.00;;;;;;;;;;106891;1275;22583;-78
2023/03/20 07:14:30;;;;;;;25.80;15.90;;;;;;;;;;106963;1275;23002;-81
2023/03/20 07:17:00;;;;;;;28.40;15.70;;;;;;;;;;106896;1275;24230;-83
2023/03/20 07:19:30;;;;;;;28.70;16.10;;;;;;;;;;106919;1259;24230;-79
2023/03/20 07:22:07;;;;;;;29.50;16.00;;;;;;;;;;106910;1267;25275;-77
2023/03/20 07:24:40;;;;;;;29.50;16.80;;;;;;;;;;106953;1275;25924;-79
2023/03/20 07:27:09;;;;;;;40.70;18.30;;;;;;;;;;107125;1275;25261;-77
2023/03/20 07:29:39;;;;;;;41.90;19.30;;;;;;;;;;106927;1258;22544;-77
2023/03/20 07:32:10;;;;;;;37.70;19.30;;;;;;;;;;106896;1275;22522;-81
2023/03/20 07:34:40;;;;;;;38.50;19.20;;;;;;;;;;107128;1267;24171;-81
2023/03/20 07:37:06;;;;;;;36.70;19.70;;;;;;;;;;106951;1272;22653;-83
2023/03/20 07:39:35;;;;;;;42.50;21.30;;;;;;;;;;106901;1258;22526;-78
2023/03/20 07:42:27;;;;;;;36.20;18.40;;;;;;;;;;107100;1275;22539;-82
2023/03/20 07:45:10;;;;;;;35.60;19.00;;;;;;;;;;106986;1272;23422;-78
2023/03/20 07:47:41;;;;;;;32.30;15.90;;;;;;;;;;107142;1275;22537;-81
2023/03/20 07:50:07;;;;;;;27.70;16.00;;;;;;;;;;107120;1255;22577;-81
2023/03/20 07:52:33;;;;;;;36.80;16.60;;;;;;;;;;107024;1275;22534;-76
2023/03/20 07:54:59;;;;;;;40.30;17.30;;;;;;;;;;106899;1275;23335;-75
2023/03/20 07:57:36;;;;;;;41.60;17.00;;;;;;;;;;107216;1275;25552;-80
2023/03/20 08:00:03;;;;;;;34.00;16.10;;;;;;;;;;107131;1275;25418;-75
2023/03/20 08:02:37;;;;;;;36.60;16.80;;;;;;;;;;107161;1275;24187;-81
2023/03/20 08:05:05;;;;;;;32.90;15.10;;;;;;;;;;106891;1275;22608;-80
2023/03/20 08:07:31;;;;;;;35.80;15.60;;;;;;;;;;106961;1275;23908;-76
2023/03/20 08:09:57;;;;;;;33.20;14.30;;;;;;;;;;107122;1256;26551;-82
2023/03/20 08:12:24;;;;;;;31.60;14.70;;;;;;;;;;106941;1275;25431;-76
2023/03/20 08:14:51;;;;;;;26.10;12.40;;;;;;;;;;107126;1275;25360;-76
2023/03/20 08:17:17;;;;;;;29.30;11.60;;;;;;;;;;107133;1275;22617;-77
2023/03/20 08:19:44;;;;;;;22.80;11.20;;;;;;;;;;107107;1254;22527;-80
2023/03/20 08:22:10;;;;;;;17.90;10.00;;;;;;;;;;106941;1275;25350;-78
2023/03/20 08:24:36;;;;;;;21.60;10.40;;;;;;;;;;106871;1275;22535;-80
2023/03/20 08:27:02;;;;;;;19.40;9.70;;;;;;;;;;107114;1275;23935;-78
2023/03/20 08:29:28;;;;;;;19.10;10.00;;;;;;;;;;107068;1275;22999;-77
2023/03/20 08:31:55;;;;;;;19.60;10.20;;;;;;;;;;107098;1255;22672;-77
2023/03/20 08:34:21;;;;;;;18.40;10.10;;;;;;;;;;106956;1275;22558;-76
2023/03/20 08:36:47;;;;;;;23.00;10.70;;;;;;;;;;107018;1275;24358;-76
2023/03/20 08:39:13;;;;;;;20.20;10.50;;;;;;;;;;107056;1275;25478;-77
2023/03/20 08:41:40;;;;;;;19.60;10.80;;;;;;;;;;106969;1259;22606;-81
2023/03/20 08:44:07;;;;;;;21.70;10.50;;;;;;;;;;107011;1275;24557;-82
2023/03/20 08:46:35;;;;;;;25.90;10.40;;;;;;;;;;107011;1275;22536;-77
2023/03/20 08:49:01;;;;;;;22.80;10.60;;;;;;;;;;106986;1275;25468;-76
2023/03/20 08:51:28;;;;;;;16.50;8.50;;;;;;;;;;107070;1260;22745;-79
2023/03/20 08:53:54;;;;;;;18.40;9.50;;;;;;;;;;107215;1275;25322;-77
2023/03/20 08:56:20;;;;;;;17.30;9.70;;;;;;;;;;106995;1275;24228;-81
2023/03/20 08:58:47;;;;;;;17.30;8.60;;;;;;;;;;107015;1275;22498;-76
2023/03/20 09:01:14;;;;;;;16.00;8.10;;;;;;;;;;107124;1257;22649;-83
2023/03/20 09:03:40;;;;;;;13.80;7.20;;;;;;;;;;107229;1275;24186;-78
2023/03/20 09:06:07;;;;;;;13.30;6.60;;;;;;;;;;107003;1275;25579;-76
2023/03/20 09:08:34;;;;;;;11.70;6.90;;;;;;;;;;107207;1275;22758;-76
2023/03/20 09:11:03;;;;;;;12.00;6.60;;;;;;;;;;106981;1268;22551;-83
2023/03/20 09:13:29;;;;;;;12.40;6.00;;;;;;;;;;107180;1275;24375;-81
2023/03/20 09:16:00;;;;;;;11.00;5.90;;;;;;;;;;107193;1275;22548;-80
2023/03/20 09:18:27;;;;;;;11.90;5.40;;;;;;;;;;106952;1275;23118;-77
2023/03/20 09:20:55;;;;;;;13.10;5.80;;;;;;;;;;107032;1255;22570;-78
2023/03/20 09:23:21;;;;;;;13.60;5.60;;;;;;;;;;107143;1275;22479;-77
2023/03/20 09:25:48;;;;;;;12.30;4.80;;;;;;;;;;106916;1275;24237;-81
2023/03/20 09:28:14;;;;;;;9.00;4.60;;;;;;;;;;107226;1275;22639;-77
2023/03/20 09:30:42;;;;;;;11.40;4.60;;;;;;;;;;106980;1275;26499;-75
2023/03/20 09:33:08;;;;;;;9.50;4.30;;;;;;;;;;106921;1269;22759;-83
2023/03/20 09:35:43;;;;;;;8.70;4.00;;;;;;;;;;107124;1275;22526;-80
2023/03/20 09:38:09;;;;;;;9.40;4.50;;;;;;;;;;107166;1275;24068;-80
2023/03/20 09:40:53;;;;;;;10.30;5.00;;;;;;;;;;107063;1275;22543;-76
2023/03/20 09:43:25;;;;;;;15.30;6.60;;;;;;;;;;107191;1275;23879;-76
2023/03/20 09:45:54;;;;;;;13.00;5.80;;;;;;;;;;106934;1275;22542;-77
2023/03/20 09:48:33;;;;;;;10.80;5.40;;;;;;;;;;107198;1275;25204;-79
2023/03/20 09:51:06;;;;;;;10.40;5.30;;;;;;;;;;107316;1275;22536;-81
2023/03/20 09:53:36;;;;;;;12.70;6.10;;;;;;;;;;106904;1257;24215;-83
2023/03/20 09:56:03;;;;;;;13.20;5.80;;;;;;;;;;107142;1275;22529;-78
2023/03/20 09:58:34;;;;;;;13.80;6.00;;;;;;;;;;107145;1275;22601;-79
2023/03/20 10:01:02;;;;;;;9.90;4.10;;;;;;;;;;106773;1275;22636;-82
2023/03/20 10:03:40;;;;;;;9.90;3.80;;;;;;;;;;106991;1266;24195;-82
2023/03/20 10:06:10;;;;;;;10.70;4.60;;;;;;;;;;106970;1275;25357;-80
2023/03/20 10:08:37;;;;;;;12.60;6.90;;;;;;;;;;106875;1275;22522;-77
2023/03/20 10:11:09;;;;;;;17.80;6.60;;;;;;;;;;106705;1273;26638;-77
2023/03/20 10:13:39;;;;;;;13.00;5.20;;;;;;;;;;106585;1260;22514;-76
2023/03/20 10:16:14;;;;;;;11.10;4.20;;;;;;;;;;106773;1273;22542;-76
2023/03/20 10:18:45;;;;;;;11.90;4.10;;;;;;;;;;106910;1275;22762;-82
2023/03/20 10:21:22;;;;;;;11.60;3.90;;;;;;;;;;106832;1273;24269;-76
2023/03/20 10:24:02;;;;;;;9.20;3.80;;;;;;;;;;106815;1275;22527;-76
2023/03/20 10:26:32;;;;;;;12.70;4.00;;;;;;;;;;107047;1267;22527;-77
2023/03/20 10:29:19;;;;;;;10.00;4.20;;;;;;;;;;106964;1270;22514;-78
2023/03/20 10:31:53;;;;;;;8.50;3.40;;;;;;;;;;107072;1271;23863;-77
2023/03/20 10:34:32;;;;;;;9.40;3.50;;;;;;;;;;106902;1257;23883;-82
2023/03/20 10:37:21;;;;;;;10.40;3.90;;;;;;;;;;107132;1272;22630;-79
2023/03/20 10:39:51;;;;;;;8.50;3.80;;;;;;;;;;107161;1267;22590;-76
2023/03/20 10:42:27;;;;;;;10.00;3.40;;;;;;;;;;107175;1270;22543;-76
2023/03/20 10:45:26;;;;;;;11.30;3.50;;;;;;;;;;106972;1258;25503;-78
2023/03/20 10:47:56;;;;;;;7.00;3.10;;;;;;;;;;107121;1270;25402;-77
2023/03/20 10:50:29;;;;;;;7.30;3.50;;;;;;;;;;107160;1273;22531;-77
2023/03/20 10:52:56;;;;;;;8.50;3.40;;;;;;;;;;106906;1257;23058;-79
2023/03/20 10:55:28;;;;;;;8.40;3.20;;;;;;;;;;107083;1272;22636;-77
2023/03/20 10:58:33;;;;;;;8.40;3.20;;;;;;;;;;106962;1273;25469;-77
2023/03/20 11:01:01;;;;;;;6.90;2.70;;;;;;;;;;106504;1276;22548;-79
2023/03/20 11:03:38;;;;;;;7.80;2.50;;;;;;;;;;106396;1275;22552;-82
2023/03/20 11:06:16;;;;;;;7.00;2.70;;;;;;;;;;106530;1278;22522;-77
2023/03/20 11:08:46;;;;;;;9.20;2.90;;;;;;;;;;106541;1281;25361;-77
2023/03/20 11:11:12;;;;;;;7.40;2.70;;;;;;;;;;106410;1275;22562;-77
2023/03/20 11:13:42;;;;;;;7.20;2.50;;;;;;;;;;106400;1276;22543;-81
2023/03/20 11:16:27;;;;;;;7.60;3.20;;;;;;;;;;106471;1279;24329;-81
2023/03/20 11:18:54;;;;;;;9.00;2.80;;;;;;;;;;106456;1275;22893;-76
2023/03/20 11:21:22;;;;;;;6.90;2.90;;;;;;;;;;106398;1275;25381;-78
2023/03/20 11:23:49;;;;;;;8.40;3.00;;;;;;;;;;106326;1274;22575;-80
2023/03/20 11:26:35;;;;;;;8.40;3.10;;;;;;;;;;106194;1281;22545;-78
2023/03/20 11:29:05;;;;;;;10.80;3.90;;;;;;;;;;106181;1278;22536;-77
2023/03/20 11:31:37;;;;;;;7.90;3.70;;;;;;;;;;110146;1275;22206;-77
2023/03/20 11:34:03;;;;;;;8.40;3.90;;;;;;;;;;110411;1259;22243;-77
2023/03/20 11:36:32;;;;;;;8.80;3.80;;;;;;;;;;110564;1275;23205;-78
2023/03/20 11:39:05;;;;;;;6.70;3.30;;;;;;;;;;110399;1275;22195;-77
2023/03/20 11:41:32;;;;;;;6.90;3.30;;;;;;;;;;110586;1275;22412;-81
2023/03/20 11:43:58;;;;;;;6.20;2.60;;;;;;;;;;110578;1257;22240;-76
2023/03/20 11:46:25;;;;;;;7.40;2.80;;;;;;;;;;110535;1275;22408;-76
2023/03/20 11:49:05;;;;;;;9.40;3.30;;;;;;;;;;110541;1271;22229;-76
2023/03/20 11:51:36;;;;;;;9.00;5.00;;;;;;;;;;110558;1275;22084;-76
2023/03/20 11:54:05;;;;;;;12.80;5.90;;;;;;;;;;110554;1254;22174;-76
2023/03/20 11:56:33;;;;;;;9.10;4.10;;;;;;;;;;110534;1275;23306;-80
2023/03/20 11:58:59;;;;;;;11.00;5.40;;;;;;;;;;110539;1275;23052;-78
2023/03/20 12:01:36;;;;;;;10.70;5.10;;;;;;;;;;110535;1274;22951;-76
2023/03/20 12:04:18;;;;;;;12.60;6.60;;;;;;;;;;110386;1275;23150;-76
2023/03/20 12:06:45;;;;;;;10.30;4.90;;;;;;;;;;110566;1259;23217;-76
2023/03/20 12:09:24;;;;;;;13.00;6.30;;;;;;;;;;110561;1275;22124;-76
2023/03/20 12:11:56;;;;;;;10.60;5.30;;;;;;;;;;110547;1275;22895;-75
2023/03/20 12:14:27;;;;;;;8.50;3.70;;;;;;;;;;110430;1275;22898;-75
2023/03/20 12:16:55;;;;;;;11.30;4.80;;;;;;;;;;110525;1257;22128;-76
2023/03/20 12:19:28;;;;;;;8.80;4.90;;;;;;;;;;110582;1275;22131;-76
2023/03/20 12:22:20;;;;;;;9.70;4.30;;;;;;;;;;110484;1275;21727;-76
2023/03/20 12:25:10;;;;;;;7.80;3.10;;;;;;;;;;110507;1254;22441;-77
2023/03/20 12:27:38;;;;;;;7.10;2.80;;;;;;;;;;110418;1275;22105;-76
2023/03/20 12:30:17;;;;;;;6.50;2.10;;;;;;;;;;110336;1275;22958;-75
2023/03/20 12:32:47;;;;;;;7.90;2.70;;;;;;;;;;110485;1275;23078;-76
2023/03/20 12:35:30;;;;;;;5.10;2.10;;;;;;;;;;110544;1252;22281;-75
2023/03/20 12:38:07;;;;;;;7.90;2.80;;;;;;;;;;110473;1275;22187;-78
2023/03/20 12:40:56;;;;;;;10.80;4.10;;;;;;;;;;110485;1275;23202;-76
2023/03/20 12:43:29;;;;;;;12.70;3.50;;;;;;;;;;110469;1276;22009;-76
2023/03/20 12:46:01;;;;;;;8.50;2.70;;;;;;;;;;110399;1261;22851;-76
2023/03/20 12:48:50;;;;;;;10.00;5.30;;;;;;;;;;110587;1275;22662;-77
2023/03/20 12:51:43;;;;;;;9.90;3.80;;;;;;;;;;110465;1275;22590;-77
2023/03/20 12:54:15;;;;;;;7.10;2.50;;;;;;;;;;110317;1275;22126;-76
2023/03/20 12:56:45;;;;;;;6.30;2.20;;;;;;;;;;110737;1258;22417;-77
2023/03/20 12:59:29;;;;;;;7.20;2.20;;;;;;;;;;110481;1275;22125;-77
2023/03/20 13:02:11;;;;;;;5.60;2.30;;;;;;;;;;110546;1275;22125;-77
2023/03/20 13:04:50;;;;;;;6.00;2.00;;;;;;;;;;110450;1275;22235;-80
2023/03/20 13:07:18;;;;;;;6.30;1.70;;;;;;;;;;110619;1254;22794;-76
2023/03/20 13:10:00;;;;;;;5.60;2.00;;;;;;;;;;110348;1275;22331;-76
2023/03/20 13:12:32;;;;;;;6.40;2.20;;;;;;;;;;110572;1275;22208;-77
2023/03/20 13:14:58;;;;;;;7.90;2.00;;;;;;;;;;110458;1275;22848;-76
2023/03/20 13:17:29;;;;;;;5.50;2.10;;;;;;;;;;110673;1257;22112;-77
2023/03/20 13:20:15;;;;;;;5.90;2.60;;;;;;;;;;110478;1276;22129;-76
2023/03/20 13:22:54;;;;;;;5.50;2.20;;;;;;;;;;110636;1276;22827;-77
2023/03/20 13:25:23;;;;;;;5.70;1.80;;;;;;;;;;110622;1276;22136;-77
2023/03/20 13:27:56;;;;;;;8.60;2.70;;;;;;;;;;110654;1257;22175;-79
2023/03/20 13:30:25;;;;;;;9.50;4.70;;;;;;;;;;110442;1276;21991;-77
2023/03/20 13:32:51;;;;;;;9.20;3.40;;;;;;;;;;110608;1276;23044;-76
2023/03/20 13:35:24;;;;;;;10.30;3.90;;;;;;;;;;110631;1276;22125;-77
2023/03/20 13:37:55;;;;;;;7.00;3.30;;;;;;;;;;110638;1257;22131;-76
2023/03/20 13:40:22;;;;;;;9.40;4.20;;;;;;;;;;110654;1276;22222;-77
2023/03/20 13:43:07;;;;;;;6.80;3.10;;;;;;;;;;110453;1276;23059;-76
2023/03/20 13:45:36;;;;;;;7.80;3.70;;;;;;;;;;110621;1276;22785;-78
2023/03/20 13:48:20;;;;;;;7.10;3.20;;;;;;;;;;110602;1253;22152;-77
2023/03/20 13:51:13;;;;;;;7.60;3.20;;;;;;;;;;110640;1276;22210;-77
2023/03/20 13:53:52;;;;;;;9.10;3.30;;;;;;;;;;110635;1276;22123;-77
2023/03/20 13:56:45;;;;;;;5.90;2.70;;;;;;;;;;110299;1276;22872;-79
2023/03/20 13:59:34;;;;;;;5.80;2.10;;;;;;;;;;110867;1257;22155;-76
2023/03/20 14:02:20;;;;;;;10.10;2.90;;;;;;;;;;110609;1276;22371;-77
2023/03/20 14:04:49;;;;;;;8.70;2.90;;;;;;;;;;110606;1276;22140;-77
2023/03/20 14:07:29;;;;;;;11.70;2.70;;;;;;;;;;110418;1254;22157;-76
2023/03/20 14:09:56;;;;;;;8.30;2.50;;;;;;;;;;110251;1276;22110;-75
2023/03/20 14:12:24;;;;;;;8.30;2.60;;;;;;;;;;110644;1276;22145;-76
2023/03/20 14:14:58;;;;;;;6.20;2.50;;;;;;;;;;110429;1276;22441;-76
2023/03/20 14:17:25;;;;;;;9.70;3.50;;;;;;;;;;110377;1254;22411;-77
2023/03/20 14:19:52;;;;;;;11.30;4.80;;;;;;;;;;110152;1277;22882;-76
2023/03/20 14:22:20;;;;;;;7.70;2.70;;;;;;;;;;110541;1276;22047;-77
2023/03/20 14:24:50;;;;;;;6.40;2.30;;;;;;;;;;110421;1276;22486;-76
2023/03/20 14:27:21;;;;;;;8.20;3.60;;;;;;;;;;110232;1276;22138;-76
2023/03/20 14:29:47;;;;;;;7.60;2.90;;;;;;;;;;110491;1259;22868;-88
2023/03/20 14:32:13;;;;;;;8.40;3.80;;;;;;;;;;110595;1270;22945;-77
2023/03/20 14:34:51;;;;;;;9.80;3.70;;;;;;;;;;110629;1269;22460;-76
2023/03/20 14:37:44;;;;;;;7.90;4.20;;;;;;;;;;110254;1276;22766;-75
2023/03/20 14:40:15;;;;;;;11.60;4.90;;;;;;;;;;110307;1261;22137;-77
2023/03/20 14:42:45;;;;;;;10.50;5.30;;;;;;;;;;110667;1276;22107;-77
2023/03/20 14:45:15;;;;;;;11.10;6.40;;;;;;;;;;110638;1276;22160;-75
2023/03/20 14:47:42;;;;;;;11.60;5.80;;;;;;;;;;110434;1276;22129;-77
2023/03/20 14:50:16;;;;;;;10.40;5.60;;;;;;;;;;110608;1256;22892;-76
2023/03/20 14:52:49;;;;;;;9.50;5.50;;;;;;;;;;110617;1276;22152;-76
2023/03/20 14:55:23;;;;;;;11.20;5.60;;;;;;;;;;110426;1276;22161;-79
2023/03/20 14:57:50;;;;;;;10.50;5.80;;;;;;;;;;110641;1276;22825;-77
2023/03/20 15:00:22;;;;;;;12.00;6.60;;;;;;;;;;110255;1260;22226;-77